sensor_id;sensor_type;location;lat;lon;timestamp;pressure;altitude;pressure_sealevel;temperature;humidity
61761;BME280;47664;51.660;-0.100;2022-10-23T00:01:24;100288.42;;;15.26;64.63
61761;BME280;47664;51.660;-0.100;2022-10-23T00:03:58;100293.91;;;14.70;65.79
61761;BME280;47664;51.660;-0.100;2022-10-23T00:06:31;100299.02;;;14.56;66.51
61761;BME280;47664;51.660;-0.100;2022-10-23T00:09:05;100298.44;;;14.46;66.79
61761;BME280;47664;51.660;-0.100;2022-10-23T00:11:38;100293.36;;;14.39;66.86
61761;BME280;47664;51.660;-0.100;2022-10-23T00:14:12;100289.00;;;14.63;66.49
61761;BME280;47664;51.660;-0.100;2022-10-23T00:16:45;100276.48;;;15.07;66.51
61761;BME280;47664;51.660;-0.100;2022-10-23T00:19:17;100272.03;;;14.36;66.91
61761;BME280;47664;51.660;-0.100;2022-10-23T00:21:49;100271.87;;;14.37;67.54
61761;BME280;47664;51.660;-0.100;2022-10-23T00:24:22;100268.90;;;14.45;67.58
61761;BME280;47664;51.660;-0.100;2022-10-23T00:26:54;100260.87;;;14.36;67.04
61761;BME280;47664;51.660;-0.100;2022-10-23T00:29:26;100259.32;;;14.51;66.74
61761;BME280;47664;51.660;-0.100;2022-10-23T00:31:58;100259.98;;;14.43;66.94
61761;BME280;47664;51.660;-0.100;2022-10-23T00:34:30;100252.12;;;14.37;66.95
61761;BME280;47664;51.660;-0.100;2022-10-23T00:37:03;100249.82;;;14.05;67.12
61761;BME280;47664;51.660;-0.100;2022-10-23T00:39:35;100248.67;;;14.27;67.29
61761;BME280;47664;51.660;-0.100;2022-10-23T00:42:09;100243.31;;;14.10;67.15
61761;BME280;47664;51.660;-0.100;2022-10-23T00:45:13;100236.78;;;14.64;66.54
61761;BME280;47664;51.660;-0.100;2022-10-23T00:47:46;100242.12;;;13.96;67.42
61761;BME280;47664;51.660;-0.100;2022-10-23T00:50:20;100232.98;;;14.33;67.05
61761;BME280;47664;51.660;-0.100;2022-10-23T00:52:55;100238.99;;;14.25;67.40
61761;BME280;47664;51.660;-0.100;2022-10-23T00:55:28;100236.76;;;14.31;67.24
61761;BME280;47664;51.660;-0.100;2022-10-23T00:58:01;100235.09;;;14.15;67.65
61761;BME280;47664;51.660;-0.100;2022-10-23T01:00:41;100226.17;;;14.29;67.35
61761;BME280;47664;51.660;-0.100;2022-10-23T01:03:14;100222.57;;;14.48;67.18
61761;BME280;47664;51.660;-0.100;2022-10-23T01:05:47;100216.23;;;14.45;66.89
61761;BME280;47664;51.660;-0.100;2022-10-23T01:08:23;100208.47;;;14.90;65.97
61761;BME280;47664;51.660;-0.100;2022-10-23T01:11:00;100215.03;;;14.72;65.70
61761;BME280;47664;51.660;-0.100;2022-10-23T01:13:36;100210.27;;;14.81;65.95
61761;BME280;47664;51.660;-0.100;2022-10-23T01:16:13;100209.15;;;14.70;66.31
61761;BME280;47664;51.660;-0.100;2022-10-23T01:18:52;100207.73;;;14.41;66.98
61761;BME280;47664;51.660;-0.100;2022-10-23T01:21:27;100208.17;;;14.35;67.32
61761;BME280;47664;51.660;-0.100;2022-10-23T01:24:10;100206.03;;;14.30;67.38
61761;BME280;47664;51.660;-0.100;2022-10-23T01:26:53;100203.29;;;14.80;66.26
61761;BME280;47664;51.660;-0.100;2022-10-23T01:29:32;100193.12;;;14.56;66.07
61761;BME280;47664;51.660;-0.100;2022-10-23T01:32:06;100189.37;;;14.75;65.64
61761;BME280;47664;51.660;-0.100;2022-10-23T01:34:41;100182.02;;;14.73;65.47
61761;BME280;47664;51.660;-0.100;2022-10-23T01:37:18;100178.55;;;14.82;65.84
61761;BME280;47664;51.660;-0.100;2022-10-23T01:39:54;100179.22;;;15.03;65.50
61761;BME280;47664;51.660;-0.100;2022-10-23T01:42:28;100171.66;;;14.85;64.84
61761;BME280;47664;51.660;-0.100;2022-10-23T01:45:01;100170.30;;;14.91;64.47
61761;BME280;47664;51.660;-0.100;2022-10-23T01:47:33;100169.16;;;15.35;64.28
61761;BME280;47664;51.660;-0.100;2022-10-23T01:50:07;100162.14;;;14.60;65.65
61761;BME280;47664;51.660;-0.100;2022-10-23T01:52:41;100153.82;;;14.87;65.49
61761;BME280;47664;51.660;-0.100;2022-10-23T01:55:14;100150.84;;;14.51;65.94
61761;BME280;47664;51.660;-0.100;2022-10-23T01:57:49;100149.08;;;14.82;65.91
61761;BME280;47664;51.660;-0.100;2022-10-23T02:00:22;100145.01;;;14.88;65.80
61761;BME280;47664;51.660;-0.100;2022-10-23T02:02:55;100137.37;;;14.56;65.79
61761;BME280;47664;51.660;-0.100;2022-10-23T02:05:29;100124.73;;;15.03;65.43
61761;BME280;47664;51.660;-0.100;2022-10-23T02:08:03;100116.83;;;15.05;64.56
61761;BME280;47664;51.660;-0.100;2022-10-23T02:10:38;100111.74;;;15.19;64.92
61761;BME280;47664;51.660;-0.100;2022-10-23T02:13:12;100105.53;;;14.34;66.97
61761;BME280;47664;51.660;-0.100;2022-10-23T02:15:46;100103.13;;;14.77;66.84
61761;BME280;47664;51.660;-0.100;2022-10-23T02:18:23;100102.64;;;14.51;66.85
61761;BME280;47664;51.660;-0.100;2022-10-23T02:21:02;100093.12;;;14.45;67.30
61761;BME280;47664;51.660;-0.100;2022-10-23T02:23:39;100095.17;;;14.43;67.68
61761;BME280;47664;51.660;-0.100;2022-10-23T02:26:15;100089.68;;;14.21;67.74
61761;BME280;47664;51.660;-0.100;2022-10-23T02:28:50;100099.80;;;14.26;68.70
61761;BME280;47664;51.660;-0.100;2022-10-23T02:31:26;100089.56;;;14.70;67.81
61761;BME280;47664;51.660;-0.100;2022-10-23T02:33:58;100081.31;;;14.33;67.99
61761;BME280;47664;51.660;-0.100;2022-10-23T02:36:31;100069.62;;;14.14;68.01
61761;BME280;47664;51.660;-0.100;2022-10-23T02:39:03;100069.86;;;14.22;67.66
61761;BME280;47664;51.660;-0.100;2022-10-23T02:41:37;100073.84;;;14.41;68.02
61761;BME280;47664;51.660;-0.100;2022-10-23T02:44:16;100072.35;;;14.26;67.87
61761;BME280;47664;51.660;-0.100;2022-10-23T02:46:52;100066.47;;;14.32;67.81
61761;BME280;47664;51.660;-0.100;2022-10-23T02:49:30;100064.97;;;14.35;67.83
61761;BME280;47664;51.660;-0.100;2022-10-23T02:52:06;100050.76;;;14.34;67.77
61761;BME280;47664;51.660;-0.100;2022-10-23T02:54:49;100042.64;;;14.37;67.70
61761;BME280;47664;51.660;-0.100;2022-10-23T02:57:23;100040.55;;;14.58;67.21
61761;BME280;47664;51.660;-0.100;2022-10-23T03:00:00;100029.86;;;13.99;68.19
61761;BME280;47664;51.660;-0.100;2022-10-23T03:02:32;100026.15;;;14.32;68.54
61761;BME280;47664;51.660;-0.100;2022-10-23T03:05:08;100020.84;;;14.51;67.91
61761;BME280;47664;51.660;-0.100;2022-10-23T03:07:44;100021.10;;;14.31;68.91
61761;BME280;47664;51.660;-0.100;2022-10-23T03:10:16;100025.15;;;14.36;69.58
61761;BME280;47664;51.660;-0.100;2022-10-23T03:12:49;100017.75;;;14.01;70.57
61761;BME280;47664;51.660;-0.100;2022-10-23T03:15:21;100004.85;;;14.25;69.71
61761;BME280;47664;51.660;-0.100;2022-10-23T03:17:54;99991.74;;;14.43;69.07
61761;BME280;47664;51.660;-0.100;2022-10-23T03:20:27;99983.19;;;14.65;69.15
61761;BME280;47664;51.660;-0.100;2022-10-23T03:22:59;99975.63;;;14.28;69.04
61761;BME280;47664;51.660;-0.100;2022-10-23T03:25:30;99965.76;;;14.46;68.97
61761;BME280;47664;51.660;-0.100;2022-10-23T03:28:03;99963.67;;;14.09;69.39
61761;BME280;47664;51.660;-0.100;2022-10-23T03:30:35;99959.56;;;14.67;68.28
61761;BME280;47664;51.660;-0.100;2022-10-23T03:33:07;99955.22;;;14.58;67.98
61761;BME280;47664;51.660;-0.100;2022-10-23T03:35:39;99953.16;;;14.32;68.61
61761;BME280;47664;51.660;-0.100;2022-10-23T03:38:12;99951.20;;;14.75;67.81
61761;BME280;47664;51.660;-0.100;2022-10-23T03:40:44;99944.54;;;14.49;68.28
61761;BME280;47664;51.660;-0.100;2022-10-23T03:43:16;99931.01;;;14.05;69.26
61761;BME280;47664;51.660;-0.100;2022-10-23T03:45:48;99919.21;;;14.34;70.02
61761;BME280;47664;51.660;-0.100;2022-10-23T03:48:20;99908.81;;;14.36;70.14
61761;BME280;47664;51.660;-0.100;2022-10-23T03:50:52;99905.91;;;14.08;69.71
61761;BME280;47664;51.660;-0.100;2022-10-23T03:53:25;99903.65;;;14.13;69.91
61761;BME280;47664;51.660;-0.100;2022-10-23T03:55:57;99910.68;;;14.15;69.46
61761;BME280;47664;51.660;-0.100;2022-10-23T03:58:29;99906.09;;;14.18;69.42
61761;BME280;47664;51.660;-0.100;2022-10-23T04:01:01;99902.38;;;14.17;69.24
61761;BME280;47664;51.660;-0.100;2022-10-23T04:03:33;99895.71;;;14.30;69.80
61761;BME280;47664;51.660;-0.100;2022-10-23T04:06:05;99895.56;;;14.29;69.34
61761;BME280;47664;51.660;-0.100;2022-10-23T04:08:38;99891.35;;;14.54;68.64
61761;BME280;47664;51.660;-0.100;2022-10-23T04:11:10;99882.20;;;14.55;68.60
61761;BME280;47664;51.660;-0.100;2022-10-23T04:13:41;99878.17;;;14.24;68.57
61761;BME280;47664;51.660;-0.100;2022-10-23T04:16:13;99883.50;;;14.41;68.90
61761;BME280;47664;51.660;-0.100;2022-10-23T04:18:45;99873.55;;;14.18;69.61
61761;BME280;47664;51.660;-0.100;2022-10-23T04:21:18;99863.89;;;14.60;69.02
61761;BME280;47664;51.660;-0.100;2022-10-23T04:23:50;99871.77;;;14.66;68.92
61761;BME280;47664;51.660;-0.100;2022-10-23T04:26:22;99869.16;;;14.44;68.84
61761;BME280;47664;51.660;-0.100;2022-10-23T04:28:54;99871.63;;;14.70;68.23
61761;BME280;47664;51.660;-0.100;2022-10-23T04:31:26;99863.81;;;14.60;68.58
61761;BME280;47664;51.660;-0.100;2022-10-23T04:33:59;99853.07;;;14.29;69.30
61761;BME280;47664;51.660;-0.100;2022-10-23T04:36:31;99846.53;;;14.40;69.16
61761;BME280;47664;51.660;-0.100;2022-10-23T04:39:03;99831.72;;;14.07;69.74
61761;BME280;47664;51.660;-0.100;2022-10-23T04:41:35;99827.05;;;14.67;69.65
61761;BME280;47664;51.660;-0.100;2022-10-23T04:44:07;99827.14;;;14.40;70.15
61761;BME280;47664;51.660;-0.100;2022-10-23T04:46:40;99821.64;;;14.32;70.77
61761;BME280;47664;51.660;-0.100;2022-10-23T04:49:11;99814.10;;;14.28;70.62
61761;BME280;47664;51.660;-0.100;2022-10-23T04:51:44;99811.32;;;13.92;72.75
61761;BME280;47664;51.660;-0.100;2022-10-23T04:54:16;99798.05;;;13.72;73.14
61761;BME280;47664;51.660;-0.100;2022-10-23T04:56:48;99793.07;;;14.05;71.60
61761;BME280;47664;51.660;-0.100;2022-10-23T04:59:20;99786.15;;;14.31;70.71
61761;BME280;47664;51.660;-0.100;2022-10-23T05:01:52;99776.95;;;14.67;69.75
61761;BME280;47664;51.660;-0.100;2022-10-23T05:04:24;99769.36;;;14.01;71.13
61761;BME280;47664;51.660;-0.100;2022-10-23T05:06:56;99771.10;;;14.51;70.15
61761;BME280;47664;51.660;-0.100;2022-10-23T05:09:28;99766.34;;;14.26;70.49
61761;BME280;47664;51.660;-0.100;2022-10-23T05:12:00;99761.54;;;14.19;70.93
61761;BME280;47664;51.660;-0.100;2022-10-23T05:14:33;99762.26;;;14.14;70.93
61761;BME280;47664;51.660;-0.100;2022-10-23T05:17:08;99765.54;;;13.76;70.58
61761;BME280;47664;51.660;-0.100;2022-10-23T05:19:40;99759.02;;;14.40;69.70
61761;BME280;47664;51.660;-0.100;2022-10-23T05:22:14;99755.46;;;14.60;68.58
61761;BME280;47664;51.660;-0.100;2022-10-23T05:24:48;99750.27;;;14.46;68.69
61761;BME280;47664;51.660;-0.100;2022-10-23T05:27:20;99749.71;;;14.55;68.46
61761;BME280;47664;51.660;-0.100;2022-10-23T05:29:53;99746.56;;;14.26;69.07
61761;BME280;47664;51.660;-0.100;2022-10-23T05:32:26;99748.32;;;14.60;69.69
61761;BME280;47664;51.660;-0.100;2022-10-23T05:35:02;99747.99;;;13.96;69.40
61761;BME280;47664;51.660;-0.100;2022-10-23T05:37:36;99735.83;;;14.72;69.27
61761;BME280;47664;51.660;-0.100;2022-10-23T05:40:10;99733.14;;;14.26;70.32
61761;BME280;47664;51.660;-0.100;2022-10-23T05:42:43;99738.37;;;14.24;69.72
61761;BME280;47664;51.660;-0.100;2022-10-23T05:45:15;99738.84;;;14.44;69.31
61761;BME280;47664;51.660;-0.100;2022-10-23T05:47:48;99731.44;;;14.62;68.55
61761;BME280;47664;51.660;-0.100;2022-10-23T05:50:20;99720.18;;;14.14;70.43
61761;BME280;47664;51.660;-0.100;2022-10-23T05:52:53;99721.19;;;14.08;70.82
61761;BME280;47664;51.660;-0.100;2022-10-23T05:55:25;99724.64;;;14.31;70.03
61761;BME280;47664;51.660;-0.100;2022-10-23T05:57:57;99724.44;;;14.50;69.69
61761;BME280;47664;51.660;-0.100;2022-10-23T06:00:29;99707.25;;;14.64;69.17
61761;BME280;47664;51.660;-0.100;2022-10-23T06:02:58;99709.64;;;14.19;68.33
61761;BME280;47664;51.660;-0.100;2022-10-23T06:05:30;99710.49;;;14.54;69.31
61761;BME280;47664;51.660;-0.100;2022-10-23T06:08:02;99705.19;;;14.27;68.64
61761;BME280;47664;51.660;-0.100;2022-10-23T06:10:35;99703.58;;;14.65;67.98
61761;BME280;47664;51.660;-0.100;2022-10-23T06:13:07;99707.32;;;15.31;66.29
61761;BME280;47664;51.660;-0.100;2022-10-23T06:15:39;99712.23;;;15.58;65.38
61761;BME280;47664;51.660;-0.100;2022-10-23T06:18:11;99724.26;;;15.23;65.03
61761;BME280;47664;51.660;-0.100;2022-10-23T06:20:44;99735.85;;;15.08;66.94
61761;BME280;47664;51.660;-0.100;2022-10-23T06:23:16;99726.73;;;15.18;65.88
61761;BME280;47664;51.660;-0.100;2022-10-23T06:25:49;99713.06;;;15.23;66.74
61761;BME280;47664;51.660;-0.100;2022-10-23T06:28:22;99715.92;;;14.58;67.32
61761;BME280;47664;51.660;-0.100;2022-10-23T06:30:54;99713.99;;;14.55;67.71
61761;BME280;47664;51.660;-0.100;2022-10-23T06:33:26;99719.36;;;15.04;66.35
61761;BME280;47664;51.660;-0.100;2022-10-23T06:36:00;99722.05;;;14.75;67.03
61761;BME280;47664;51.660;-0.100;2022-10-23T06:38:32;99735.97;;;14.97;66.89
61761;BME280;47664;51.660;-0.100;2022-10-23T06:41:05;99759.20;;;14.87;66.36
61761;BME280;47664;51.660;-0.100;2022-10-23T06:43:37;99747.89;;;15.26;65.74
61761;BME280;47664;51.660;-0.100;2022-10-23T06:46:10;99727.66;;;15.26;65.09
61761;BME280;47664;51.660;-0.100;2022-10-23T06:48:42;99705.23;;;15.27;66.17
61761;BME280;47664;51.660;-0.100;2022-10-23T06:51:16;99707.13;;;14.92;66.29
61761;BME280;47664;51.660;-0.100;2022-10-23T06:53:49;99705.05;;;14.96;67.02
61761;BME280;47664;51.660;-0.100;2022-10-23T06:56:21;99707.31;;;14.55;67.91
61761;BME280;47664;51.660;-0.100;2022-10-23T06:58:54;99714.41;;;15.09;67.76
61761;BME280;47664;51.660;-0.100;2022-10-23T07:01:26;99716.20;;;14.79;68.19
61761;BME280;47664;51.660;-0.100;2022-10-23T07:03:59;99699.97;;;14.76;68.59
61761;BME280;47664;51.660;-0.100;2022-10-23T07:06:31;99700.45;;;14.50;69.30
61761;BME280;47664;51.660;-0.100;2022-10-23T07:09:03;99698.83;;;14.21;70.22
61761;BME280;47664;51.660;-0.100;2022-10-23T07:11:36;99683.94;;;14.10;71.41
61761;BME280;47664;51.660;-0.100;2022-10-23T07:14:08;99680.66;;;13.95;71.48
61761;BME280;47664;51.660;-0.100;2022-10-23T07:16:40;99667.16;;;14.25;71.27
61761;BME280;47664;51.660;-0.100;2022-10-23T07:19:12;99660.31;;;13.79;72.26
61761;BME280;47664;51.660;-0.100;2022-10-23T07:21:44;99650.89;;;14.24;70.94
61761;BME280;47664;51.660;-0.100;2022-10-23T07:24:16;99669.87;;;14.45;69.84
61761;BME280;47664;51.660;-0.100;2022-10-23T07:26:49;99696.05;;;14.50;70.26
61761;BME280;47664;51.660;-0.100;2022-10-23T07:29:21;99706.76;;;14.15;70.55
61761;BME280;47664;51.660;-0.100;2022-10-23T07:31:53;99709.45;;;14.31;71.06
61761;BME280;47664;51.660;-0.100;2022-10-23T07:34:26;99701.96;;;14.42;70.55
61761;BME280;47664;51.660;-0.100;2022-10-23T07:36:59;99701.52;;;14.57;70.42
61761;BME280;47664;51.660;-0.100;2022-10-23T07:39:31;99681.96;;;15.04;69.03
61761;BME280;47664;51.660;-0.100;2022-10-23T07:42:03;99676.76;;;14.46;70.44
61761;BME280;47664;51.660;-0.100;2022-10-23T07:44:35;99677.04;;;14.75;70.92
61761;BME280;47664;51.660;-0.100;2022-10-23T07:47:07;99671.27;;;14.46;70.40
61761;BME280;47664;51.660;-0.100;2022-10-23T07:49:40;99654.67;;;14.47;70.85
61761;BME280;47664;51.660;-0.100;2022-10-23T07:52:12;99635.02;;;14.08;72.01
61761;BME280;47664;51.660;-0.100;2022-10-23T07:54:44;99632.13;;;14.52;71.90
61761;BME280;47664;51.660;-0.100;2022-10-23T07:57:16;99631.76;;;14.47;71.32
61761;BME280;47664;51.660;-0.100;2022-10-23T07:59:48;99630.36;;;14.16;71.46
61761;BME280;47664;51.660;-0.100;2022-10-23T08:02:21;99627.72;;;14.27;71.35
61761;BME280;47664;51.660;-0.100;2022-10-23T08:04:53;99620.88;;;14.38;71.11
61761;BME280;47664;51.660;-0.100;2022-10-23T08:07:26;99612.34;;;14.70;70.38
61761;BME280;47664;51.660;-0.100;2022-10-23T08:09:58;99619.32;;;14.61;70.23
61761;BME280;47664;51.660;-0.100;2022-10-23T08:12:30;99632.77;;;14.65;70.14
61761;BME280;47664;51.660;-0.100;2022-10-23T08:15:02;99635.17;;;14.39;70.35
61761;BME280;47664;51.660;-0.100;2022-10-23T08:17:34;99636.34;;;14.86;70.39
61761;BME280;47664;51.660;-0.100;2022-10-23T08:20:06;99644.15;;;14.55;70.05
61761;BME280;47664;51.660;-0.100;2022-10-23T08:22:39;99650.05;;;14.85;71.12
61761;BME280;47664;51.660;-0.100;2022-10-23T08:25:11;99652.30;;;14.34;71.75
61761;BME280;47664;51.660;-0.100;2022-10-23T08:27:43;99656.25;;;14.26;71.89
61761;BME280;47664;51.660;-0.100;2022-10-23T08:30:16;99656.69;;;14.20;72.29
61761;BME280;47664;51.660;-0.100;2022-10-23T08:32:48;99649.91;;;14.73;71.20
61761;BME280;47664;51.660;-0.100;2022-10-23T08:35:21;99646.95;;;14.42;71.26
61761;BME280;47664;51.660;-0.100;2022-10-23T08:37:53;99636.21;;;14.73;71.10
61761;BME280;47664;51.660;-0.100;2022-10-23T08:40:27;99623.31;;;15.00;70.40
61761;BME280;47664;51.660;-0.100;2022-10-23T08:43:00;99626.59;;;14.68;71.15
61761;BME280;47664;51.660;-0.100;2022-10-23T08:45:33;99636.47;;;14.73;71.33
61761;BME280;47664;51.660;-0.100;2022-10-23T08:48:08;99630.52;;;14.60;71.65
61761;BME280;47664;51.660;-0.100;2022-10-23T08:50:48;99627.75;;;14.34;72.12
61761;BME280;47664;51.660;-0.100;2022-10-23T08:53:21;99621.83;;;14.71;71.63
61761;BME280;47664;51.660;-0.100;2022-10-23T08:55:55;99614.89;;;14.99;70.68
61761;BME280;47664;51.660;-0.100;2022-10-23T08:58:33;99612.57;;;14.74;70.73
61761;BME280;47664;51.660;-0.100;2022-10-23T09:01:15;99608.38;;;14.73;70.63
61761;BME280;47664;51.660;-0.100;2022-10-23T09:03:54;99607.62;;;14.67;70.96
61761;BME280;47664;51.660;-0.100;2022-10-23T09:06:32;99603.81;;;14.77;70.60
61761;BME280;47664;51.660;-0.100;2022-10-23T09:09:22;99604.92;;;15.00;70.86
61761;BME280;47664;51.660;-0.100;2022-10-23T09:12:00;99596.99;;;15.01;69.91
61761;BME280;47664;51.660;-0.100;2022-10-23T09:14:53;99594.51;;;15.20;69.56
61761;BME280;47664;51.660;-0.100;2022-10-23T09:17:24;99594.98;;;15.11;69.85
61761;BME280;47664;51.660;-0.100;2022-10-23T09:19:58;99585.64;;;15.66;68.83
61761;BME280;47664;51.660;-0.100;2022-10-23T09:22:31;99588.67;;;15.23;69.42
61761;BME280;47664;51.660;-0.100;2022-10-23T09:25:07;99598.97;;;14.63;70.42
61761;BME280;47664;51.660;-0.100;2022-10-23T09:27:40;99584.04;;;15.26;70.48
61761;BME280;47664;51.660;-0.100;2022-10-23T09:30:26;99572.58;;;14.82;70.24
61761;BME280;47664;51.660;-0.100;2022-10-23T09:32:59;99569.13;;;14.65;70.71
61761;BME280;47664;51.660;-0.100;2022-10-23T09:35:32;99565.09;;;15.09;71.03
61761;BME280;47664;51.660;-0.100;2022-10-23T09:38:04;99556.36;;;14.57;70.96
61761;BME280;47664;51.660;-0.100;2022-10-23T09:40:38;99564.20;;;15.19;70.67
61761;BME280;47664;51.660;-0.100;2022-10-23T09:43:13;99572.68;;;14.91;70.45
61761;BME280;47664;51.660;-0.100;2022-10-23T09:45:54;99586.48;;;15.23;69.70
61761;BME280;47664;51.660;-0.100;2022-10-23T09:48:26;99593.35;;;15.09;70.41
61761;BME280;47664;51.660;-0.100;2022-10-23T09:51:01;99588.50;;;15.31;70.31
61761;BME280;47664;51.660;-0.100;2022-10-23T09:53:32;99562.83;;;15.12;70.63
61761;BME280;47664;51.660;-0.100;2022-10-23T09:56:16;99545.20;;;14.72;72.55
61761;BME280;47664;51.660;-0.100;2022-10-23T09:58:58;99562.85;;;14.47;73.39
61761;BME280;47664;51.660;-0.100;2022-10-23T10:01:33;99536.30;;;14.88;72.74
61761;BME280;47664;51.660;-0.100;2022-10-23T10:04:06;99529.24;;;14.77;72.93
61761;BME280;47664;51.660;-0.100;2022-10-23T10:06:38;99522.91;;;15.18;73.50
61761;BME280;47664;51.660;-0.100;2022-10-23T10:09:09;99527.40;;;14.09;75.48
61761;BME280;47664;51.660;-0.100;2022-10-23T10:11:45;99511.54;;;14.13;75.55
61761;BME280;47664;51.660;-0.100;2022-10-23T10:14:40;99499.47;;;14.32;75.13
61761;BME280;47664;51.660;-0.100;2022-10-23T10:17:18;99507.27;;;14.55;74.41
61761;BME280;47664;51.660;-0.100;2022-10-23T10:20:03;99492.60;;;14.72;74.64
61761;BME280;47664;51.660;-0.100;2022-10-23T10:22:46;99492.01;;;14.89;73.01
61761;BME280;47664;51.660;-0.100;2022-10-23T10:25:20;99515.33;;;14.94;73.89
61761;BME280;47664;51.660;-0.100;2022-10-23T10:27:55;99510.56;;;14.93;73.97
61761;BME280;47664;51.660;-0.100;2022-10-23T10:30:35;99494.98;;;15.11;74.23
61761;BME280;47664;51.660;-0.100;2022-10-23T10:33:11;99497.11;;;14.84;74.42
61761;BME280;47664;51.660;-0.100;2022-10-23T10:35:49;99492.02;;;14.76;74.38
61761;BME280;47664;51.660;-0.100;2022-10-23T10:38:30;99485.61;;;15.13;73.79
61761;BME280;47664;51.660;-0.100;2022-10-23T10:41:19;99495.95;;;15.36;73.51
61761;BME280;47664;51.660;-0.100;2022-10-23T10:43:57;99482.69;;;15.50;72.96
61761;BME280;47664;51.660;-0.100;2022-10-23T10:46:32;99494.18;;;15.16;72.67
61761;BME280;47664;51.660;-0.100;2022-10-23T10:49:12;99511.24;;;15.05;73.18
61761;BME280;47664;51.660;-0.100;2022-10-23T10:51:49;99523.00;;;15.63;72.05
61761;BME280;47664;51.660;-0.100;2022-10-23T10:54:29;99524.17;;;15.65;71.65
61761;BME280;47664;51.660;-0.100;2022-10-23T10:57:12;99521.41;;;15.24;72.56
61761;BME280;47664;51.660;-0.100;2022-10-23T10:59:48;99505.94;;;15.36;72.61
61761;BME280;47664;51.660;-0.100;2022-10-23T11:02:25;99512.70;;;15.41;72.91
61761;BME280;47664;51.660;-0.100;2022-10-23T11:04:59;99508.13;;;15.54;73.27
61761;BME280;47664;51.660;-0.100;2022-10-23T11:07:35;99497.20;;;15.55;72.96
61761;BME280;47664;51.660;-0.100;2022-10-23T11:10:14;99486.06;;;15.53;72.80
61761;BME280;47664;51.660;-0.100;2022-10-23T11:12:48;99471.01;;;15.84;73.14
61761;BME280;47664;51.660;-0.100;2022-10-23T11:15:25;99458.23;;;15.78;73.07
61761;BME280;47664;51.660;-0.100;2022-10-23T11:17:57;99459.44;;;15.66;72.90
61761;BME280;47664;51.660;-0.100;2022-10-23T11:20:44;99460.97;;;15.75;73.59
61761;BME280;47664;51.660;-0.100;2022-10-23T11:23:39;99456.56;;;15.69;72.87
61761;BME280;47664;51.660;-0.100;2022-10-23T11:26:22;99456.21;;;15.94;73.31
61761;BME280;47664;51.660;-0.100;2022-10-23T11:29:09;99459.34;;;16.20;72.87
61761;BME280;47664;51.660;-0.100;2022-10-23T11:31:52;99467.95;;;15.91;74.05
61761;BME280;47664;51.660;-0.100;2022-10-23T11:34:43;99471.89;;;15.48;75.11
61761;BME280;47664;51.660;-0.100;2022-10-23T11:37:20;99471.04;;;15.84;74.39
61761;BME280;47664;51.660;-0.100;2022-10-23T11:40:00;99467.02;;;15.89;73.12
61761;BME280;47664;51.660;-0.100;2022-10-23T11:42:45;99461.22;;;16.00;72.66
61761;BME280;47664;51.660;-0.100;2022-10-23T11:45:30;99461.65;;;15.90;73.84
61761;BME280;47664;51.660;-0.100;2022-10-23T11:48:04;99460.09;;;16.01;73.03
61761;BME280;47664;51.660;-0.100;2022-10-23T11:50:48;99454.12;;;16.25;72.52
61761;BME280;47664;51.660;-0.100;2022-10-23T11:53:25;99447.21;;;16.14;72.20
61761;BME280;47664;51.660;-0.100;2022-10-23T11:55:58;99446.78;;;16.18;72.42
61761;BME280;47664;51.660;-0.100;2022-10-23T11:58:40;99438.77;;;16.07;72.62
61761;BME280;47664;51.660;-0.100;2022-10-23T12:01:22;99428.06;;;16.06;72.43
61761;BME280;47664;51.660;-0.100;2022-10-23T12:03:59;99423.02;;;15.96;72.52
61761;BME280;47664;51.660;-0.100;2022-10-23T12:06:37;99418.84;;;16.18;71.69
61761;BME280;47664;51.660;-0.100;2022-10-23T12:09:21;99410.77;;;15.79;72.89
61761;BME280;47664;51.660;-0.100;2022-10-23T12:12:12;99404.48;;;16.07;73.03
61761;BME280;47664;51.660;-0.100;2022-10-23T12:14:46;99402.12;;;16.12;71.88
61761;BME280;47664;51.660;-0.100;2022-10-23T12:17:33;99391.74;;;16.18;71.73
61761;BME280;47664;51.660;-0.100;2022-10-23T12:20:17;99387.19;;;16.32;71.43
61761;BME280;47664;51.660;-0.100;2022-10-23T12:22:56;99385.00;;;16.23;71.09
61761;BME280;47664;51.660;-0.100;2022-10-23T12:25:39;99384.40;;;16.33;71.17
61761;BME280;47664;51.660;-0.100;2022-10-23T12:28:21;99383.95;;;16.10;71.74
61761;BME280;47664;51.660;-0.100;2022-10-23T12:31:03;99380.49;;;16.48;71.40
61761;BME280;47664;51.660;-0.100;2022-10-23T12:33:44;99374.28;;;16.40;71.11
61761;BME280;47664;51.660;-0.100;2022-10-23T12:36:42;99371.20;;;16.67;70.94
61761;BME280;47664;51.660;-0.100;2022-10-23T12:39:31;99358.76;;;16.33;70.89
61761;BME280;47664;51.660;-0.100;2022-10-23T12:42:04;99345.99;;;16.12;72.38
61761;BME280;47664;51.660;-0.100;2022-10-23T12:44:37;99343.03;;;16.62;71.23
61761;BME280;47664;51.660;-0.100;2022-10-23T12:47:10;99345.88;;;16.23;70.49
61761;BME280;47664;51.660;-0.100;2022-10-23T12:49:47;99340.88;;;16.47;70.13
61761;BME280;47664;51.660;-0.100;2022-10-23T12:52:21;99329.82;;;16.95;69.05
61761;BME280;47664;51.660;-0.100;2022-10-23T12:54:54;99330.15;;;17.38;68.35
61761;BME280;47664;51.660;-0.100;2022-10-23T12:57:28;99322.79;;;17.48;68.07
61761;BME280;47664;51.660;-0.100;2022-10-23T13:00:07;99319.79;;;16.90;67.89
61761;BME280;47664;51.660;-0.100;2022-10-23T13:02:41;99318.94;;;16.71;70.25
61761;BME280;47664;51.660;-0.100;2022-10-23T13:05:12;99318.88;;;16.79;69.89
61761;BME280;47664;51.660;-0.100;2022-10-23T13:07:45;99314.49;;;16.86;69.62
61761;BME280;47664;51.660;-0.100;2022-10-23T13:10:19;99312.06;;;16.86;69.25
61761;BME280;47664;51.660;-0.100;2022-10-23T13:12:52;99305.51;;;16.88;69.74
61761;BME280;47664;51.660;-0.100;2022-10-23T13:15:35;99305.77;;;16.74;70.01
61761;BME280;47664;51.660;-0.100;2022-10-23T13:18:09;99296.24;;;16.60;70.25
61761;BME280;47664;51.660;-0.100;2022-10-23T13:20:54;99295.68;;;16.60;71.07
61761;BME280;47664;51.660;-0.100;2022-10-23T13:23:26;99299.14;;;16.33;71.44
61761;BME280;47664;51.660;-0.100;2022-10-23T13:26:00;99297.40;;;16.41;71.38
61761;BME280;47664;51.660;-0.100;2022-10-23T13:28:33;99289.92;;;16.73;70.54